KM4CBK Weather Reports


Display with metric or nautical units.
time (UTC)temp
F
wind
direction
speed
MPH
gust
MPH
rain 1hr
in
rain 24hr
in
rain mn
in
humidity
%
barometer
mb
20210926045803 58 243 0.0 1.0 0.00 0.00 0.00 93 1020.2
20210926045259 57 254 1.0 1.0 0.00 0.00 0.00 93 1020.4
20210926044756 57 200 1.0 1.0 0.00 0.00 0.00 93 1020.5
20210926044254 57 229 0.0 0.0 0.00 0.00 0.00 92 1020.4
20210926043753 57 229 0.0 0.0 0.00 0.00 0.00 92 1020.5
20210926043252 57 229 0.0 0.0 0.00 0.00 0.00 92 1020.5
20210926042749 57 229 0.0 2.0 0.00 0.00 0.00 92 1020.5
20210926042246 58 157 0.0 0.0 0.00 0.00 0.00 93 1020.7
20210926041744 57 195 0.0 1.0 0.00 0.00 0.00 92 1020.6
20210926041242 57 203 0.0 1.0 0.00 0.00 0.00 92 1020.6
20210926040742 57 261 0.0 0.0 0.00 0.00 0.00 92 1020.5
20210926040241 57 215 0.0 0.0 0.00 0.00 0.00 92 1020.8
20210926035740 58 215 0.0 1.0 0.00 0.00 0.00 92 1020.5
20210926035237 58 246 0.0 2.0 0.00 0.00 0.00 92 1020.5
20210926034735 58 246 0.0 1.0 0.00 0.00 0.00 92 1020.6
20210926034234 58 200 1.0 1.0 0.00 0.00 0.00 92 1020.5
20210926033732 58 234 0.0 0.0 0.00 0.00 0.00 92 1020.3
20210926033232 58 234 0.0 0.0 0.00 0.00 0.00 92 1020.0
20210926032731 58 234 0.0 0.0 0.00 0.00 0.00 92 1020.4
20210926032227 58 234 0.0 0.0 0.00 0.00 0.00 92 1020.3
20210926031725 59 234 0.0 1.0 0.00 0.00 0.00 92 1020.1
20210926031222 58 261 0.0 1.0 0.00 0.00 0.00 91 1020.0
20210926030723 58 246 1.0 1.0 0.00 0.00 0.00 91 1020.2
20210926030221 58 249 0.0 0.0 0.00 0.00 0.00 91 1020.0
20210926025721 59 249 0.0 0.0 0.00 0.00 0.00 91 1020.0
20210926025221 59 249 0.0 0.0 0.00 0.00 0.00 91 1020.1
20210926024721 59 249 0.0 0.0 0.00 0.00 0.00 90 1020.0
20210926024219 59 249 0.0 0.0 0.00 0.00 0.00 90 1019.9
20210926023717 59 249 0.0 0.0 0.00 0.00 0.00 90 1019.9
20210926023216 59 249 0.0 0.0 0.00 0.00 0.00 90 1020.0
20210926022716 60 249 0.0 1.0 0.00 0.00 0.00 90 1020.0
20210926022214 60 246 0.0 0.0 0.00 0.00 0.00 90 1019.7
20210926021711 60 246 0.0 0.0 0.00 0.00 0.00 90 1019.9
20210926021209 60 246 0.0 0.0 0.00 0.00 0.00 89 1019.7
20210926020708 60 240 0.0 2.0 0.00 0.00 0.00 89 1019.7
20210926020207 61 249 0.0 1.0 0.00 0.00 0.00 89 1019.8
20210926014825 62 270 0.0 0.0 0.00 0.00 0.00 88 1019.7
20210926014324 62 270 0.0 0.0 0.00 0.00 0.00 88 1019.7
20210926013823 62 270 0.0 2.0 0.00 0.00 0.00 87 1019.8
20210926013321 62 263 0.0 1.0 0.00 0.00 0.00 87 1019.5
20210926012820 62 249 0.0 1.0 0.00 0.00 0.00 87 1019.4
20210926012318 62 254 0.0 1.0 0.00 0.00 0.00 87 1019.2
20210926011817 62 240 0.0 0.0 0.00 0.00 0.00 87 1019.4
20210926011316 62 270 0.0 1.0 0.00 0.00 0.00 88 1019.4
20210926010814 62 270 0.0 0.0 0.00 0.00 0.00 88 1019.3
20210926010314 62 270 0.0 0.0 0.00 0.00 0.00 88 1019.3
20210926005812 62 270 0.0 0.0 0.00 0.00 0.00 87 1019.1
20210926005310 62 270 0.0 0.0 0.00 0.00 0.00 87 1019.3
20210926004810 62 270 0.0 0.0 0.00 0.00 0.00 86 1019.2
20210926004310 62 270 0.0 0.0 0.00 0.00 0.00 86 1019.2
20210926003810 63 270 0.0 0.0 0.00 0.00 0.00 86 1019.4
20210926003309 63 270 0.0 0.0 0.00 0.00 0.00 85 1019.1
20210926002759 63 270 0.0 0.0 0.00 0.00 0.00 85 1019.2
20210926002258 63 270 0.0 0.0 0.00 0.00 0.00 84 1018.8
20210926001755 63 254 0.0 1.0 0.00 0.00 0.00 85 1018.9
20210926001254 64 229 0.0 0.0 0.00 0.00 0.00 84 1019.0
20210926000752 64 229 0.0 0.0 0.00 0.00 0.00 84 1018.8
20210926000254 64 229 0.0 0.0 0.00 0.00 0.00 82 1018.8
20210925235751 65 229 0.0 0.0 0.00 0.00 0.00 82 1018.8
20210925235251 65 229 0.0 2.0 0.00 0.00 0.00 82 1018.9
20210925234750 66 237 2.0 2.0 0.00 0.00 0.00 81 1019.1
20210925234248 66 254 0.0 2.0 0.00 0.00 0.00 80 1018.9
20210925233747 67 246 0.0 1.0 0.00 0.00 0.00 78 1019.0
20210925233246 67 254 0.0 0.0 0.00 0.00 0.00 78 1018.9
20210925232745 68 240 0.0 1.0 0.00 0.00 0.00 77 1019.0
20210925232244 68 254 0.0 1.0 0.00 0.00 0.00 76 1018.9
20210925231741 68 261 0.0 0.0 0.00 0.00 0.00 73 1018.8
20210925231240 69 261 0.0 1.0 0.00 0.00 0.00 71 1018.9
20210925230737 69 261 0.0 1.0 0.00 0.00 0.00 73 1019.0
20210925230234 70 240 0.0 0.0 0.00 0.00 0.00 69 1018.8
20210925225735 70 240 0.0 0.0 0.00 0.00 0.00 69 1018.7
20210925225233 71 254 0.0 1.0 0.00 0.00 0.00 67 1018.9
20210925224733 72 262 0.0 1.0 0.00 0.00 0.00 65 1018.7
20210925224231 73 0 0.0 1.0 0.00 0.00 0.00 61 1018.7
20210925223728 73 286 0.0 1.0 0.00 0.00 0.00 63 1018.6
20210925223227 74 294 0.0 1.0 0.00 0.00 0.00 59 1018.6
20210925222720 75 270 0.0 1.0 0.00 0.00 0.00 61 1018.5
20210925222220 74 346 0.0 0.0 0.00 0.00 0.00 64 1018.6
20210925221719 75 346 0.0 0.0 0.00 0.00 0.00 65 1018.5
20210925221217 75 74 0.0 1.0 0.00 0.00 0.00 60 1018.4
20210925220715 76 7 0.0 2.0 0.00 0.00 0.00 60 1018.6
20210925220214 77 286 0.0 1.0 0.00 0.00 0.00 55 1018.6
20210925215712 77 286 0.0 0.0 0.00 0.00 0.00 53 1018.5
20210925215211 79 331 0.0 2.0 0.00 0.00 0.00 56 1018.4
20210925214709 81 82 1.0 3.0 0.00 0.00 0.00 46 1018.5
20210925214208 83 78 2.0 2.0 0.00 0.00 0.00 44 1018.5
20210925213707 82 328 0.0 2.0 0.00 0.00 0.00 46 1018.5
20210925213205 81 352 0.0 2.0 0.00 0.00 0.00 50 1018.8
20210925212704 80 75 1.0 3.0 0.00 0.00 0.00 45 1018.7
20210925212203 80 53 3.0 3.0 0.00 0.00 0.00 45 1018.8
20210925211702 80 157 1.0 3.0 0.00 0.00 0.00 46 1018.9
20210925211157 80 15 0.0 4.0 0.00 0.00 0.00 45 1018.8
20210925210657 80 356 2.0 6.0 0.00 0.00 0.00 45 1018.8
20210925210156 80 14 3.0 4.0 0.00 0.00 0.00 45 1019.0
20210925205653 81 10 3.0 3.0 0.00 0.00 0.00 46 1018.9
20210925205151 84 323 2.0 2.0 0.00 0.00 0.00 46 1018.8
20210925204650 82 311 0.0 2.0 0.00 0.00 0.00 48 1018.8
20210925204149 80 353 0.0 3.0 0.00 0.00 0.00 45 1018.9
20210925203645 80 30 2.0 5.0 0.00 0.00 0.00 44 1018.9
20210925203145 81 353 3.0 7.0 0.00 0.00 0.00 45 1019.1
20210925202643 81 90 2.0 3.0 0.00 0.00 0.00 45 1019.0
20210925202143 81 14 2.0 4.0 0.00 0.00 0.00 43 1018.9
20210925201640 82 113 3.0 4.0 0.00 0.00 0.00 42 1019.1
20210925201138 82 0 0.0 4.0 0.00 0.00 0.00 41 1019.2
20210925200637 83 90 0.0 1.0 0.00 0.00 0.00 41 1019.1
20210925200136 81 41 2.0 5.0 0.00 0.00 0.00 45 1019.0
20210925195636 82 20 1.0 3.0 0.00 0.00 0.00 45 1019.4
20210925195135 83 36 0.0 2.0 0.00 0.00 0.00 44 1019.2
20210925194631 81 114 0.0 3.0 0.00 0.00 0.00 45 1019.4
20210925194130 80 53 2.0 5.0 0.00 0.00 0.00 49 1019.3
20210925193628 81 90 2.0 4.0 0.00 0.00 0.00 46 1019.5
20210925193128 81 347 3.0 5.0 0.00 0.00 0.00 48 1019.5
20210925192626 82 0 1.0 5.0 0.00 0.00 0.00 47 1019.5
20210925192125 81 0 2.0 5.0 0.00 0.00 0.00 48 1019.6
20210925191624 82 148 2.0 3.0 0.00 0.00 0.00 46 1019.6
20210925191123 81 22 2.0 3.0 0.00 0.00 0.00 46 1019.5
20210925190622 84 90 0.0 1.0 0.00 0.00 0.00 42 1019.9
20210925190121 83 172 0.0 4.0 0.00 0.00 0.00 42 1019.9
20210925185620 80 0 0.0 6.0 0.00 0.00 0.00 46 1019.8
20210925185120 82 188 0.0 3.0 0.00 0.00 0.00 47 1019.9
20210925184619 80 41 4.0 6.0 0.00 0.00 0.00 47 1020.1
20210925184118 80 3 2.0 3.0 0.00 0.00 0.00 48 1019.9
20210925183617 81 12 0.0 5.0 0.00 0.00 0.00 44 1020.1
20210925183115 83 45 2.0 3.0 0.00 0.00 0.00 44 1020.0
20210925182613 82 160 0.0 1.0 0.00 0.00 0.00 43 1020.2
20210925182112 79 51 0.0 5.0 0.00 0.00 0.00 46 1020.4
20210925181610 82 90 0.0 3.0 0.00 0.00 0.00 46 1020.4
20210925181108 81 20 1.0 3.0 0.00 0.00 0.00 46 1020.4
20210925180606 82 347 3.0 3.0 0.00 0.00 0.00 47 1020.7
20210925180105 80 209 3.0 5.0 0.00 0.00 0.00 48 1020.7
20210925175605 81 0 3.0 4.0 0.00 0.00 0.00 48 1020.6
20210925175104 81 348 0.0 2.0 0.00 0.00 0.00 49 1020.5
20210925174557 79 40 2.0 4.0 0.00 0.00 0.00 50 1020.7
20210925174056 79 0 0.0 4.0 0.00 0.00 0.00 49 1020.4
20210925173554 80 352 1.0 4.0 0.00 0.00 0.00 49 1020.8
20210925173051 80 5 0.0 4.0 0.00 0.00 0.00 48 1020.7
20210925172544 80 320 3.0 5.0 0.00 0.00 0.00 48 1020.8
20210925172042 82 190 2.0 3.0 0.00 0.00 0.00 45 1020.9
20210925171540 82 166 4.0 4.0 0.00 0.00 0.00 45 1021.1
20210925171039 81 180 0.0 3.0 0.00 0.00 0.00 46 1020.9
20210925170539 81 229 0.0 4.0 0.00 0.00 0.00 47 1020.8
20210925170038 79 346 0.0 3.0 0.00 0.00 0.00 48 1020.7
20210925165528 81 0 0.0 2.0 0.00 0.00 0.00 46 1020.9
20210925165027 80 209 0.0 5.0 0.00 0.00 0.00 51 1020.8
20210925164526 80 85 2.0 4.0 0.00 0.00 0.00 48 1020.8
20210925164022 80 257 2.0 4.0 0.00 0.00 0.00 46 1021.1
20210925163520 78 297 2.0 3.0 0.00 0.00 0.00 51 1020.9
20210925163019 81 66 0.0 2.0 0.00 0.00 0.00 44 1020.9
20210925162517 80 120 0.0 2.0 0.00 0.00 0.00 49 1020.9
20210925162015 78 0 0.0 2.0 0.00 0.00 0.00 51 1021.1
20210925161515 78 82 2.0 3.0 0.00 0.00 0.00 49 1021.1
20210925161014 78 0 0.0 1.0 0.00 0.00 0.00 51 1021.2
20210925160513 77 213 0.0 3.0 0.00 0.00 0.00 54 1021.0
20210925160013 77 65 0.0 2.0 0.00 0.00 0.00 53 1021.2
20210925155513 77 45 2.0 3.0 0.00 0.00 0.00 52 1021.2
20210925155012 77 90 0.0 3.0 0.00 0.00 0.00 53 1021.2
20210925154511 76 343 4.0 4.0 0.00 0.00 0.00 56 1021.2
20210925154009 78 157 0.0 2.0 0.00 0.00 0.00 53 1021.2
20210925153508 78 96 2.0 3.0 0.00 0.00 0.00 56 1021.4
20210925153006 74 105 1.0 3.0 0.00 0.00 0.00 60 1021.6
20210925152504 77 341 2.0 3.0 0.00 0.00 0.00 52 1021.3
20210925152003 75 0 0.0 1.0 0.00 0.00 0.00 59 1021.4
20210925151502 75 126 0.0 2.0 0.00 0.00 0.00 62 1021.5
20210925151000 74 246 0.0 2.0 0.00 0.00 0.00 64 1021.4
20210925150458 73 109 1.0 2.0 0.00 0.00 0.00 67 1021.4
20210925145955 70 7 0.0 3.0 0.00 0.00 0.00 74 1021.4
20210925145454 69 270 0.0 2.0 0.00 0.00 0.00 75 1021.5
20210925144954 68 114 1.0 2.0 0.00 0.00 0.00 77 1021.5
20210925144450 68 120 0.0 2.0 0.00 0.00 0.00 77 1021.7
20210925143949 67 66 1.0 2.0 0.00 0.00 0.00 77 1021.6
20210925143449 66 165 1.0 3.0 0.00 0.00 0.00 79 1021.4
20210925142948 66 114 2.0 2.0 0.00 0.00 0.00 81 1021.5
20210925142448 65 90 0.0 2.0 0.00 0.00 0.00 80 1021.4
20210925141947 65 337 0.0 2.0 0.00 0.00 0.00 81 1021.6
20210925141445 65 75 0.0 2.0 0.00 0.00 0.00 82 1021.5
20210925140944 64 109 2.0 2.0 0.00 0.00 0.00 81 1021.6
20210925140437 64 114 1.0 2.0 0.00 0.00 0.00 82 1021.7
20210925135937 63 263 0.0 1.0 0.00 0.00 0.00 84 1021.6
20210925135434 62 16 0.0 2.0 0.00 0.00 0.00 83 1021.8
20210925134932 63 99 0.0 2.0 0.00 0.00 0.00 84 1021.7
20210925134431 62 90 0.0 2.0 0.00 0.00 0.00 85 1021.5
20210925133930 62 117 2.0 3.0 0.00 0.00 0.00 85 1021.6
20210925133429 60 14 0.0 2.0 0.00 0.00 0.00 84 1021.7
20210925132927 60 357 2.0 4.0 0.00 0.00 0.00 84 1021.8
20210925132427 60 36 3.0 5.0 0.00 0.00 0.00 86 1021.9
20210925131924 59 0 0.0 2.0 0.00 0.00 0.00 87 1021.9
20210925131423 58 352 0.0 3.0 0.00 0.00 0.00 87 1021.6
20210925130923 58 8 0.0 2.0 0.00 0.00 0.00 87 1021.6
20210925130422 58 16 2.0 3.0 0.00 0.00 0.00 87 1021.9
20210925125922 57 0 1.0 3.0 0.00 0.00 0.00 89 1022.0
20210925125420 57 340 0.0 0.0 0.00 0.00 0.00 90 1021.6
20210925124917 57 15 0.0 3.0 0.00 0.00 0.00 90 1021.7
20210925124416 56 8 0.0 3.0 0.00 0.00 0.00 92 1021.6
20210925123914 55 345 0.0 2.0 0.00 0.00 0.00 93 1021.6
20210925123413 55 352 0.0 2.0 0.00 0.00 0.00 94 1021.7
20210925122911 55 0 0.0 2.0 0.00 0.00 0.00 94 1021.3
20210925122410 55 83 0.0 2.0 0.00 0.00 0.00 94 1021.4
20210925121907 54 26 0.0 1.0 0.00 0.00 0.00 94 1021.1
20210925121406 54 23 0.0 2.0 0.00 0.00 0.00 94 1021.3
20210925120906 54 7 1.0 2.0 0.00 0.00 0.00 95 1021.4
20210925120405 53 60 0.0 2.0 0.00 0.00 0.00 94 1021.1
20210925115903 53 203 0.0 0.0 0.00 0.00 0.00 94 1021.2
20210925115401 53 212 0.0 2.0 0.00 0.00 0.00 94 1021.2
20210925114900 52 187 0.0 1.0 0.00 0.00 0.00 94 1021.0
20210925114359 52 168 0.0 0.0 0.00 0.00 0.00 94 1021.1
20210925113858 52 172 0.0 1.0 0.00 0.00 0.00 94 1020.9
20210925113356 52 172 0.0 0.0 0.00 0.00 0.00 94 1020.7
20210925112855 52 165 0.0 1.0 0.00 0.00 0.00 94 1020.6
20210925112353 52 352 0.0 0.0 0.00 0.00 0.00 94 1020.8
20210925111852 52 188 0.0 2.0 0.00 0.00 0.00 94 1020.6
20210925111350 52 180 0.0 1.0 0.00 0.00 0.00 94 1020.7
20210925110848 52 180 0.0 1.0 0.00 0.00 0.00 94 1020.5
20210925110347 52 98 0.0 0.0 0.00 0.00 0.00 94 1020.4
20210925105847 52 195 0.0 1.0 0.00 0.00 0.00 94 1020.2
20210925105346 52 262 0.0 0.0 0.00 0.00 0.00 94 1020.0
20210925104846 52 262 0.0 1.0 0.00 0.00 0.00 94 1020.3
20210925104344 52 172 0.0 0.0 0.00 0.00 0.00 94 1019.9
20210925103844 52 194 0.0 0.0 0.00 0.00 0.00 94 1020.0
20210925103339 52 261 0.0 0.0 0.00 0.00 0.00 94 1020.2
20210925102839 52 249 0.0 1.0 0.00 0.00 0.00 94 1019.9
20210925102338 52 180 0.0 0.0 0.00 0.00 0.00 94 1019.9
20210925101835 52 172 0.0 0.0 0.00 0.00 0.00 94 1020.1
20210925101335 53 172 0.0 0.0 0.00 0.00 0.00 94 1020.0
20210925100833 53 172 0.0 0.0 0.00 0.00 0.00 93 1019.8
20210925100331 53 172 0.0 0.0 0.00 0.00 0.00 94 1019.9
20210925095830 53 0 0.0 0.0 0.00 0.00 0.00 94 1019.9
20210925095330 53 172 0.0 0.0 0.00 0.00 0.00 93 1019.9
20210925094829 53 172 0.0 0.0 0.00 0.00 0.00 93 1019.9
20210925094325 53 195 0.0 1.0 0.00 0.00 0.00 93 1020.0
20210925093823 53 187 0.0 0.0 0.00 0.00 0.00 93 1019.8
20210925093321 53 187 0.0 1.0 0.00 0.00 0.00 93 1019.7
20210925092819 53 203 0.0 0.0 0.00 0.00 0.00 93 1019.7
20210925092316 53 200 0.0 1.0 0.00 0.00 0.00 93 1019.6
20210925091814 53 203 0.0 0.0 0.00 0.00 0.00 93 1019.6
20210925091313 53 203 0.0 0.0 0.00 0.00 0.00 93 1019.8
20210925090812 53 203 0.0 0.0 0.00 0.00 0.00 93 1019.7
20210925090308 53 203 0.0 0.0 0.00 0.00 0.00 93 1020.0
20210925085808 53 203 0.0 0.0 0.00 0.00 0.00 93 1020.0
20210925085306 53 203 1.0 1.0 0.00 0.00 0.00 93 1019.8
20210925084805 53 166 0.0 1.0 0.00 0.00 0.00 93 1020.0
20210925084304 54 115 0.0 0.0 0.00 0.00 0.00 92 1020.2
20210925083802 54 115 0.0 0.0 0.00 0.00 0.00 93 1019.9
20210925083257 54 172 0.0 0.0 0.00 0.00 0.00 92 1020.0
20210925082755 54 172 0.0 0.0 0.00 0.00 0.00 92 1019.8
20210925082255 54 90 0.0 1.0 0.00 0.00 0.00 92 1019.7
20210925081754 54 180 0.0 0.0 0.00 0.00 0.00 92 1019.9
20210925081252 54 35 0.0 0.0 0.00 0.00 0.00 92 1019.7
20210925080751 54 352 0.0 0.0 0.00 0.00 0.00 93 1019.7
20210925080250 54 54 1.0 1.0 0.00 0.00 0.00 93 1019.6
20210925075749 54 20 0.0 0.0 0.00 0.00 0.00 93 1019.8
20210925075247 54 14 0.0 1.0 0.00 0.00 0.00 93 1019.8
20210925074746 54 255 0.0 2.0 0.00 0.00 0.00 93 1019.8
20210925074239 54 0 0.0 2.0 0.00 0.00 0.00 93 1019.8
20210925073731 54 180 0.0 0.0 0.00 0.00 0.00 93 1019.8
20210925073226 54 180 0.0 1.0 0.00 0.00 0.00 93 1019.7
20210925072725 54 188 0.0 0.0 0.00 0.00 0.00 93 1019.7
20210925072224 54 23 0.0 0.0 0.00 0.00 0.00 93 1020.0
20210925071724 54 180 0.0 0.0 0.00 0.00 0.00 93 1020.0
20210925071223 54 180 0.0 0.0 0.00 0.00 0.00 93 1020.1
20210925070722 54 180 0.0 0.0 0.00 0.00 0.00 93 1019.8
20210925070213 55 270 0.0 0.0 0.00 0.00 0.00 93 1019.9
20210925065710 55 5 0.0 2.0 0.00 0.00 0.00 93 1019.7
20210925065208 54 99 0.0 0.0 0.00 0.00 0.00 93 1020.1
20210925064708 55 90 0.0 1.0 0.00 0.00 0.00 93 1020.0
20210925064207 55 0 0.0 2.0 0.00 0.00 0.00 94 1019.9
20210925063705 54 345 0.0 0.0 0.00 0.00 0.00 94 1019.9
20210925063204 54 23 0.0 0.0 0.00 0.00 0.00 93 1019.8
20210925062702 54 180 0.0 0.0 0.00 0.00 0.00 93 1019.5
20210925062155 54 180 0.0 0.0 0.00 0.00 0.00 93 1019.7
20210925061654 54 180 0.0 1.0 0.00 0.00 0.00 93 1019.7
20210925061154 53 180 0.0 0.0 0.00 0.00 0.00 93 1019.6
20210925060651 53 180 0.0 1.0 0.00 0.00 0.00 93 1019.8
20210925060150 53 188 0.0 0.0 0.00 0.00 0.00 93 1019.9
20210925055650 54 188 0.0 0.0 0.00 0.00 0.00 93 1019.9
20210925055148 53 188 0.0 0.0 0.00 0.00 0.00 93 1019.8
20210925054648 53 165 1.0 1.0 0.00 0.00 0.00 92 1020.0
20210925054145 53 166 0.0 0.0 0.00 0.00 0.00 92 1019.8
20210925053644 54 166 0.0 0.0 0.00 0.00 0.00 92 1019.6
20210925053140 54 166 0.0 0.0 0.00 0.00 0.00 92 1019.7
20210925052639 54 166 0.0 1.0 0.00 0.00 0.00 92 1019.6
20210925052139 54 166 0.0 1.0 0.00 0.00 0.00 92 1019.7
20210925051638 54 172 0.0 0.0 0.00 0.00 0.00 92 1019.6
20210925051132 54 172 0.0 0.0 0.00 0.00 0.00 92 1019.6
20210925050632 54 254 0.0 0.0 0.00 0.00 0.00 92 1019.7